Time;durP1;ratioP1;P1;durP2;ratioP2;P2;SDS_P1;SDS_P2;PMS_P1;PMS_P2;Temp;Humidity;BMP_temperature;BMP_pressure;BME280_temperature;BME280_humidity;BME280_pressure;Samples;Min_cycle;Max_cycle;Signal;HPM_P1;HPM_P2
2022/11/24 00:01:40;;;;;;;9.25;2.45;;;;;;;8.51;51.51;100361.25;7389501;19;19995;-59
2022/11/24 00:04:05;;;;;;;11.43;3.00;;;;;;;8.49;51.51;100371.66;7391509;19;20521;-58
2022/11/24 00:06:33;;;;;;;11.15;3.20;;;;;;;8.41;51.55;100369.81;7389575;19;20341;-58
2022/11/24 00:09:01;;;;;;;9.48;3.08;;;;;;;8.39;51.80;100372.09;7390624;19;20752;-59
2022/11/24 00:11:29;;;;;;;11.50;3.60;;;;;;;8.38;51.67;100377.88;7391384;19;20016;-58
2022/11/24 00:13:55;;;;;;;7.93;2.60;;;;;;;8.32;51.92;100380.03;7389352;19;19999;-58
2022/11/24 00:16:27;;;;;;;9.73;2.78;;;;;;;8.29;51.92;100377.94;7388825;19;19998;-58
2022/11/24 00:18:55;;;;;;;8.18;3.05;;;;;;;8.30;51.63;100388.47;7387751;19;20011;-59
2022/11/24 00:21:21;;;;;;;16.48;3.40;;;;;;;8.23;52.02;100373.84;7389707;19;20021;-58
2022/11/24 00:23:48;;;;;;;11.00;2.97;;;;;;;8.20;52.09;100379.94;7391110;19;20030;-59
2022/11/24 00:26:23;;;;;;;10.00;2.75;;;;;;;8.18;52.06;100374.03;7388638;19;19998;-58
2022/11/24 00:28:57;;;;;;;10.20;3.38;;;;;;;8.08;52.26;100372.53;7388097;19;20425;-57
2022/11/24 00:31:24;;;;;;;;;;;;;;;8.01;52.33;100375.78;7389572;19;20018;-56
2022/11/24 00:33:52;;;;;;;9.05;2.67;;;;;;;8.12;52.03;100389.78;7390719;19;19914;-56
2022/11/24 00:36:19;;;;;;;12.88;2.83;;;;;;;8.13;51.82;100385.91;7391046;19;20003;-56
2022/11/24 00:38:45;;;;;;;11.52;3.00;;;;;;;8.08;51.89;100391.56;7398036;19;20006;-58
2022/11/24 00:41:12;;;;;;;11.00;3.13;;;;;;;8.11;51.92;100394.44;7395493;19;20010;-57
2022/11/24 00:43:38;;;;;;;10.57;3.85;;;;;;;8.09;51.91;100393.94;7398471;19;20024;-58
2022/11/24 00:46:04;;;;;;;9.77;3.53;;;;;;;8.07;51.89;100384.56;7396901;19;20006;-57
2022/11/24 00:48:30;;;;;;;12.65;3.72;;;;;;;7.96;52.35;100389.59;7397521;19;20007;-58
2022/11/24 00:51:07;;;;;;;8.77;3.42;;;;;;;7.96;52.28;100395.03;7397189;19;20003;-58
2022/11/24 00:53:33;;;;;;;12.93;3.72;;;;;;;7.98;52.34;100398.22;7395876;19;20080;-58
2022/11/24 00:56:01;;;;;;;10.95;3.85;;;;;;;7.97;52.30;100399.34;7396643;19;20002;-58
2022/11/24 00:58:26;;;;;;;11.68;3.53;;;;;;;8.01;52.27;100402.97;7396841;19;20018;-58
2022/11/24 01:00:52;;;;;;;8.52;3.25;;;;;;;7.92;52.33;100405.00;7395373;19;20513;-58
2022/11/24 01:03:20;;;;;;;12.60;3.83;;;;;;;7.97;52.33;100402.06;7397464;19;20078;-58
2022/11/24 01:05:45;;;;;;;11.52;3.38;;;;;;;7.98;52.28;100403.66;7394824;19;20006;-58
2022/11/24 01:08:11;;;;;;;10.07;3.47;;;;;;;8.05;51.95;100398.47;7394815;19;20084;-58
2022/11/24 01:10:37;;;;;;;11.80;4.05;;;;;;;8.07;52.01;100401.66;7394400;19;20006;-58
2022/11/24 01:13:04;;;;;;;11.98;3.63;;;;;;;8.09;51.80;100399.38;7395707;19;20009;-58
2022/11/24 01:15:29;;;;;;;12.80;3.88;;;;;;;8.12;51.66;100404.16;7395239;19;20002;-58
2022/11/24 01:17:56;;;;;;;15.38;3.92;;;;;;;8.12;51.92;100406.88;7396830;19;20058;-58
2022/11/24 01:20:22;;;;;;;12.20;4.07;;;;;;;8.03;52.09;100414.34;7393878;19;20079;-59
2022/11/24 01:22:48;;;;;;;10.93;4.25;;;;;;;8.08;52.01;100414.13;7396078;19;19995;-59
2022/11/24 01:25:15;;;;;;;12.25;3.88;;;;;;;8.03;51.98;100411.63;7396034;19;20010;-58
2022/11/24 01:27:40;;;;;;;11.20;3.88;;;;;;;8.13;51.82;100411.19;7396984;19;20007;-58
2022/11/24 01:30:07;;;;;;;10.43;3.92;;;;;;;8.12;52.00;100416.97;7394025;19;20054;-58
2022/11/24 01:32:35;;;;;;;11.85;4.20;;;;;;;8.04;52.04;100413.19;7394603;19;20002;-58
2022/11/24 01:35:04;;;;;;;11.05;3.90;;;;;;;8.18;51.75;100417.53;7395461;19;20030;-57
2022/11/24 01:37:30;;;;;;;11.93;3.70;;;;;;;8.28;51.55;100414.41;7394632;19;20009;-57
2022/11/24 01:39:56;;;;;;;11.77;3.90;;;;;;;8.23;51.62;100420.06;7392189;19;20062;-57
2022/11/24 01:42:22;;;;;;;11.70;4.00;;;;;;;8.28;51.55;100417.94;7395140;19;20518;-58
2022/11/24 01:44:50;;;;;;;10.52;3.83;;;;;;;8.31;51.77;100414.56;7395415;19;20372;-58
2022/11/24 01:47:35;;;;;;;12.05;4.38;;;;;;;8.27;51.59;100421.00;7392464;19;20042;-57
2022/11/24 01:50:01;;;;;;;;;;;;;;;8.24;52.03;100417.00;7395902;19;20012;-57
2022/11/24 01:52:43;;;;;;;12.88;4.65;;;;;;;8.23;51.65;100420.88;7394886;19;19915;-56
2022/11/24 01:55:17;;;;;;;12.13;3.40;;;;;;;8.19;51.69;100417.22;7394335;19;20022;-56
2022/11/24 01:58:18;;;;;;;13.75;4.43;;;;;;;8.14;51.84;100428.28;7395547;19;20006;-56
2022/11/24 02:00:44;;;;;;;10.98;4.63;;;;;;;8.13;51.85;100427.50;7393065;19;20062;-56
2022/11/24 02:03:17;;;;;;;12.48;4.30;;;;;;;8.23;51.86;100425.50;7394692;19;20507;-56
2022/11/24 02:06:13;;;;;;;11.05;4.13;;;;;;;8.24;52.07;100427.09;7395445;19;20002;-57
2022/11/24 02:08:59;;;;;;;14.98;4.60;;;;;;;8.23;51.89;100429.03;7393721;19;20355;-56
2022/11/24 02:11:29;;;;;;;10.65;4.50;;;;;;;8.23;51.91;100439.91;7396043;19;20040;-55
2022/11/24 02:13:56;;;;;;;16.77;4.70;;;;;;;8.31;52.02;100432.78;7394809;19;20357;-56
2022/11/24 02:16:22;;;;;;;17.10;5.30;;;;;;;8.39;51.79;100436.56;7392408;19;20526;-56
2022/11/24 02:18:48;;;;;;;14.48;5.15;;;;;;;8.40;51.67;100441.69;7392386;19;19999;-55
2022/11/24 02:21:15;;;;;;;14.95;4.75;;;;;;;8.43;51.84;100445.66;7392475;19;20009;-56
2022/11/24 02:23:54;;;;;;;12.57;5.25;;;;;;;8.51;51.74;100447.47;7393363;19;19994;-56
2022/11/24 02:26:43;;;;;;;16.30;5.13;;;;;;;8.49;51.78;100450.53;7394458;19;20002;-55
2022/11/24 02:29:10;;;;;;;11.48;4.70;;;;;;;8.52;51.73;100459.97;7393525;19;20058;-55
2022/11/24 02:31:38;;;;;;;18.17;5.78;;;;;;;8.55;51.68;100459.31;7398322;19;20022;-54
2022/11/24 02:34:04;;;;;;;14.80;5.55;;;;;;;8.50;51.91;100468.47;7393459;19;20010;-57
2022/11/24 02:36:30;;;;;;;11.70;4.82;;;;;;;8.57;51.82;100470.63;7393795;19;20009;-55
2022/11/24 02:38:55;;;;;;;12.65;5.72;;;;;;;8.51;52.00;100461.91;7394044;19;20007;-55
2022/11/24 02:41:25;;;;;;;14.55;5.35;;;;;;;8.51;52.08;100469.25;7392686;19;20011;-55
2022/11/24 02:43:56;;;;;;;15.18;5.93;;;;;;;8.61;51.88;100478.91;7393659;19;20013;-55
2022/11/24 02:46:22;;;;;;;11.45;4.72;;;;;;;8.67;51.89;100483.03;7392014;19;20003;-55
2022/11/24 02:48:48;;;;;;;15.18;5.05;;;;;;;8.67;51.84;100480.31;7392624;19;20005;-54
2022/11/24 02:51:14;;;;;;;14.70;5.45;;;;;;;8.67;51.87;100483.03;7394461;19;20026;-55
2022/11/24 02:53:39;;;;;;;13.77;5.10;;;;;;;8.45;52.36;100479.56;7389796;19;20532;-53
2022/11/24 02:56:06;;;;;;;14.18;4.85;;;;;;;8.51;52.12;100489.09;7392765;19;20070;-55
2022/11/24 02:58:31;;;;;;;19.73;4.72;;;;;;;8.62;52.10;100496.84;7390556;19;20112;-55
2022/11/24 03:00:58;;;;;;;15.85;5.45;;;;;;;8.58;52.07;100499.44;7390668;19;20065;-55
2022/11/24 03:03:25;;;;;;;13.50;4.63;;;;;;;8.51;52.29;100502.69;7393605;19;20062;-55
2022/11/24 03:05:51;;;;;;;15.13;5.13;;;;;;;8.38;52.51;100500.25;7393877;19;19999;-54
2022/11/24 03:08:17;;;;;;;17.80;5.22;;;;;;;8.44;52.15;100499.72;7392292;19;20327;-55
2022/11/24 03:10:43;;;;;;;12.13;5.25;;;;;;;8.41;52.25;100497.66;7391395;19;20370;-55
2022/11/24 03:13:09;;;;;;;18.30;5.65;;;;;;;8.40;52.13;100517.03;7393036;19;20526;-55
2022/11/24 03:15:36;;;;;;;15.77;5.03;;;;;;;8.30;52.46;100512.78;7393274;19;20003;-55
2022/11/24 03:18:08;;;;;;;17.40;5.10;;;;;;;8.40;52.25;100517.03;7391260;19;20007;-55
2022/11/24 03:20:33;;;;;;;15.73;5.50;;;;;;;8.40;52.18;100517.84;7391549;19;20078;-56
2022/11/24 03:22:59;;;;;;;21.65;5.38;;;;;;;8.39;52.18;100510.78;7391617;19;20074;-55
2022/11/24 03:25:25;;;;;;;15.52;5.82;;;;;;;8.33;52.30;100517.56;7391951;19;20469;-55
2022/11/24 03:27:50;;;;;;;15.82;5.88;;;;;;;8.27;52.47;100518.88;7391660;19;20012;-55
2022/11/24 03:30:16;;;;;;;12.57;5.03;;;;;;;8.15;52.88;100525.03;7391068;19;20001;-55
2022/11/24 03:32:42;;;;;;;13.52;5.78;;;;;;;8.24;52.79;100519.53;7390713;19;20426;-55
2022/11/24 03:35:08;;;;;;;15.57;5.18;;;;;;;8.18;52.78;100523.56;7391539;19;20010;-55
2022/11/24 03:37:34;;;;;;;17.65;5.43;;;;;;;8.19;52.57;100522.47;7391533;19;20012;-56
2022/11/24 03:39:59;;;;;;;14.75;5.43;;;;;;;8.21;52.42;100526.41;7391228;19;20010;-56
2022/11/24 03:42:25;;;;;;;14.18;5.13;;;;;;;8.19;52.77;100523.25;7392324;19;20027;-56
2022/11/24 03:44:51;;;;;;;13.57;4.95;;;;;;;8.23;52.54;100523.38;7391621;19;20010;-55
2022/11/24 03:47:17;;;;;;;18.00;5.57;;;;;;;8.25;52.43;100523.84;7392980;19;19994;-56
2022/11/24 03:49:44;;;;;;;14.15;5.45;;;;;;;8.32;52.25;100532.31;7391328;19;20075;-56
2022/11/24 03:52:10;;;;;;;17.73;5.88;;;;;;;8.34;52.31;100538.19;7391894;19;20011;-55
2022/11/24 03:54:36;;;;;;;16.88;5.18;;;;;;;8.23;52.53;100539.69;7391658;19;20462;-56
2022/11/24 03:57:02;;;;;;;15.07;5.18;;;;;;;8.26;52.33;100539.03;7391276;19;20465;-56
2022/11/24 03:59:28;;;;;;;18.52;5.57;;;;;;;8.10;52.72;100544.28;7391510;19;20062;-56
2022/11/24 04:01:53;;;;;;;16.58;5.88;;;;;;;8.13;52.63;100546.31;7390153;19;20462;-56
2022/11/24 04:04:19;;;;;;;18.67;5.35;;;;;;;8.13;52.67;100544.41;7392263;19;20002;-56
2022/11/24 04:06:45;;;;;;;17.70;5.97;;;;;;;8.21;52.58;100541.94;7391143;19;20003;-56
2022/11/24 04:09:11;;;;;;;23.05;6.10;;;;;;;8.23;52.32;100550.56;7390290;19;20030;-56
2022/11/24 04:14:31;;;;;;;;;;;;;;;8.13;52.95;100558.00;7388003;19;20002;-57
2022/11/24 04:16:57;;;;;;;19.77;5.47;;;;;;;8.19;52.47;100557.81;7390831;19;19948;-56
2022/11/24 04:19:22;;;;;;;18.23;6.13;;;;;;;8.18;52.33;100559.72;7390126;19;20003;-56
2022/11/24 04:21:48;;;;;;;15.23;5.35;;;;;;;8.23;52.31;100559.53;7389769;19;20471;-57
2022/11/24 04:24:14;;;;;;;19.58;5.82;;;;;;;8.29;52.46;100571.00;7389203;19;20011;-56
2022/11/24 04:26:39;;;;;;;17.40;5.55;;;;;;;8.28;52.56;100575.66;7390976;19;20007;-56
2022/11/24 04:29:05;;;;;;;17.88;5.47;;;;;;;8.22;52.72;100573.47;7390689;19;20002;-55
2022/11/24 04:31:30;;;;;;;15.68;5.57;;;;;;;8.25;52.67;100578.25;7390352;19;20006;-56
2022/11/24 04:33:56;;;;;;;17.35;5.45;;;;;;;8.33;52.38;100580.09;7390872;19;20006;-57
2022/11/24 04:36:22;;;;;;;20.05;5.75;;;;;;;8.20;52.59;100567.53;7388983;19;20006;-56
2022/11/24 04:38:47;;;;;;;13.77;5.32;;;;;;;8.28;52.72;100570.22;7390682;19;19998;-56
2022/11/24 04:41:13;;;;;;;19.75;5.57;;;;;;;8.30;52.47;100573.38;7389241;19;20460;-56
2022/11/24 04:43:39;;;;;;;16.63;5.93;;;;;;;8.28;52.63;100585.72;7390765;19;20606;-56
2022/11/24 04:46:04;;;;;;;14.65;5.60;;;;;;;8.34;52.67;100576.28;7389673;19;20058;-57
2022/11/24 04:48:30;;;;;;;19.38;5.78;;;;;;;8.31;52.62;100585.88;7390072;19;19998;-56
2022/11/24 04:50:56;;;;;;;21.02;5.90;;;;;;;8.32;52.83;100586.69;7390644;19;19998;-57
2022/11/24 04:53:21;;;;;;;15.68;5.47;;;;;;;8.32;52.68;100589.41;7390554;19;19995;-57
2022/11/24 04:55:47;;;;;;;20.17;5.28;;;;;;;8.28;52.83;100591.16;7390225;19;20006;-56
2022/11/24 04:58:13;;;;;;;22.27;5.70;;;;;;;8.29;52.71;100596.25;7391010;19;19995;-57
2022/11/24 05:00:39;;;;;;;17.90;5.50;;;;;;;8.36;52.44;100598.47;7388458;19;19999;-56
2022/11/24 05:03:05;;;;;;;18.15;5.47;;;;;;;8.36;52.26;100597.69;7390876;19;19999;-56
2022/11/24 05:05:31;;;;;;;19.05;5.95;;;;;;;8.34;52.57;100600.75;7389096;19;20066;-56
2022/11/24 05:08:00;;;;;;;16.20;5.18;;;;;;;8.31;52.44;100598.66;7390919;19;19999;-57
2022/11/24 05:10:35;;;;;;;20.52;5.53;;;;;;;8.28;52.48;100602.84;7385673;19;20485;-56
2022/11/24 05:13:03;;;;;;;17.60;6.05;;;;;;;8.27;52.68;100603.16;7388637;19;20002;-56
2022/11/24 05:15:30;;;;;;;20.60;5.70;;;;;;;8.25;52.73;100614.38;7388924;19;20576;-57
2022/11/24 05:17:55;;;;;;;15.90;4.97;;;;;;;8.27;52.75;100619.50;7388521;19;20090;-56
2022/11/24 05:20:22;;;;;;;15.95;5.45;;;;;;;8.35;52.54;100618.66;7388273;19;20454;-54
2022/11/24 05:22:48;;;;;;;20.10;5.55;;;;;;;8.30;52.79;100614.19;7393326;19;19999;-55
2022/11/24 05:25:13;;;;;;;21.23;5.60;;;;;;;8.26;52.87;100626.03;7396727;19;20473;-55
2022/11/24 05:27:40;;;;;;;23.25;6.45;;;;;;;8.29;52.57;100630.81;7396568;19;19997;-56
2022/11/24 05:30:06;;;;;;;20.02;6.32;;;;;;;8.23;52.96;100637.56;7394381;19;20033;-57
2022/11/24 05:32:32;;;;;;;18.15;5.40;;;;;;;8.28;52.80;100631.94;7395183;19;20015;-56
2022/11/24 05:34:59;;;;;;;19.70;5.43;;;;;;;8.29;52.65;100631.59;7394138;19;20017;-56
2022/11/24 05:37:27;;;;;;;20.45;6.28;;;;;;;8.32;52.56;100641.06;7397060;19;19998;-57
2022/11/24 05:39:53;;;;;;;15.40;4.97;;;;;;;8.32;52.56;100639.16;7393067;19;20013;-57
2022/11/24 05:45:04;;;;;;;21.10;6.47;;;;;;;8.28;52.78;100645.53;7395521;19;20003;-57
2022/11/24 05:47:30;;;;;;;16.98;5.43;;;;;;;8.29;52.57;100644.41;7397004;19;20010;-56
2022/11/24 05:49:56;;;;;;;26.42;6.07;;;;;;;8.32;52.43;100641.88;7393142;19;20102;-56
2022/11/24 05:52:22;;;;;;;17.35;5.80;;;;;;;8.29;52.56;100645.22;7395695;19;20352;-55
2022/11/24 05:54:47;;;;;;;19.65;6.05;;;;;;;8.32;52.48;100657.38;7395119;19;20354;-56
2022/11/24 05:57:15;;;;;;;19.10;5.70;;;;;;;8.28;52.70;100656.41;7396262;19;20091;-56
2022/11/24 05:59:40;;;;;;;18.35;5.45;;;;;;;8.21;52.67;100664.28;7395075;19;20008;-57
2022/11/24 06:02:06;;;;;;;23.55;5.75;;;;;;;8.23;52.54;100654.69;7393500;19;19991;-57
2022/11/24 06:04:31;;;;;;;16.15;5.28;;;;;;;8.12;53.00;100664.34;7396306;19;19995;-57
2022/11/24 06:06:57;;;;;;;21.13;5.60;;;;;;;8.08;53.02;100661.50;7395434;19;20341;-56
2022/11/24 06:09:23;;;;;;;23.48;6.35;;;;;;;7.91;53.26;100665.09;7394333;19;20058;-55
2022/11/24 06:11:49;;;;;;;21.92;5.32;;;;;;;7.92;53.31;100668.59;7393421;19;20070;-57
2022/11/24 06:14:14;;;;;;;20.10;5.78;;;;;;;7.98;53.06;100664.59;7395743;19;20018;-55
2022/11/24 06:16:40;;;;;;;17.05;5.20;;;;;;;7.98;53.20;100667.31;7394355;19;20006;-55
2022/11/24 06:19:06;;;;;;;19.65;6.30;;;;;;;8.12;52.71;100664.34;7394409;19;20066;-56
2022/11/24 06:21:31;;;;;;;20.40;6.03;;;;;;;8.07;52.85;100670.75;7391652;19;20026;-54
2022/11/24 06:24:04;;;;;;;20.45;5.88;;;;;;;8.08;52.75;100674.25;7395809;19;20023;-57
2022/11/24 06:26:30;;;;;;;19.15;6.45;;;;;;;8.02;52.85;100673.66;7394140;19;20380;-57
2022/11/24 06:28:56;;;;;;;18.92;6.32;;;;;;;8.02;52.92;100673.66;7394657;19;20006;-55
2022/11/24 06:31:22;;;;;;;19.33;5.93;;;;;;;8.05;52.74;100674.94;7394738;19;20014;-55
2022/11/24 06:33:47;;;;;;;16.73;5.78;;;;;;;8.06;52.77;100671.88;7390578;19;20010;-56
2022/11/24 06:36:14;;;;;;;19.85;6.10;;;;;;;8.04;52.62;100678.78;7392562;19;20014;-57
2022/11/24 06:38:40;;;;;;;20.98;6.07;;;;;;;8.03;52.86;100682.59;7394239;19;20007;-54
2022/11/24 06:41:10;;;;;;;21.52;6.60;;;;;;;8.05;52.67;100694.75;7392705;19;20070;-50
2022/11/24 06:43:36;;;;;;;15.55;5.30;;;;;;;8.12;52.65;100697.75;7394734;19;20002;-54
2022/11/24 06:46:02;;;;;;;18.15;5.80;;;;;;;8.02;52.80;100692.69;7394295;19;20493;-55
2022/11/24 06:48:28;;;;;;;19.42;5.90;;;;;;;8.06;52.80;100704.50;7394360;19;20412;-56
2022/11/24 06:50:58;;;;;;;17.92;6.07;;;;;;;8.08;52.52;100702.28;7392497;19;20006;-55
2022/11/24 06:53:24;;;;;;;20.45;6.00;;;;;;;8.07;52.44;100703.38;7392499;19;19999;-54
2022/11/24 06:55:50;;;;;;;23.38;6.20;;;;;;;8.03;52.68;100704.34;7392477;19;19991;-55
2022/11/24 06:58:16;;;;;;;20.70;6.30;;;;;;;7.97;52.71;100706.47;7391973;19;20038;-53
2022/11/24 07:00:42;;;;;;;23.50;6.60;;;;;;;7.99;52.81;100717.81;7391700;19;20430;-55
2022/11/24 07:03:14;;;;;;;18.83;6.22;;;;;;;7.96;52.67;100718.44;7394272;19;20012;-52
2022/11/24 07:05:40;;;;;;;24.45;6.32;;;;;;;7.98;53.00;100724.38;7391726;19;20006;-55
2022/11/24 07:08:06;;;;;;;22.13;6.50;;;;;;;8.00;52.55;100724.84;7394308;19;20307;-57
2022/11/24 07:10:32;;;;;;;24.10;6.30;;;;;;;7.97;52.68;100733.66;7390006;19;20332;-56
2022/11/24 07:12:57;;;;;;;20.77;6.13;;;;;;;7.96;52.76;100734.75;7391901;19;20073;-57
2022/11/24 07:15:23;;;;;;;19.73;6.60;;;;;;;8.01;52.58;100740.00;7392146;19;19998;-57
2022/11/24 07:17:49;;;;;;;19.77;6.60;;;;;;;7.99;52.48;100739.53;7391090;19;19995;-57
2022/11/24 07:20:15;;;;;;;20.80;5.90;;;;;;;8.00;52.79;100749.31;7391595;19;19994;-57
2022/11/24 07:22:40;;;;;;;20.15;5.95;;;;;;;7.95;52.86;100750.28;7391763;19;19998;-57
2022/11/24 07:25:08;;;;;;;20.30;5.80;;;;;;;7.95;52.73;100758.44;7392245;19;20471;-57
2022/11/24 07:27:34;;;;;;;20.55;5.78;;;;;;;7.92;52.84;100758.28;7393714;19;20522;-57
2022/11/24 07:30:00;;;;;;;20.63;5.80;;;;;;;8.00;52.50;100767.50;7392486;19;20494;-57
2022/11/24 07:32:27;;;;;;;22.25;6.47;;;;;;;7.97;52.76;100767.03;7391770;19;20007;-57
2022/11/24 07:34:53;;;;;;;21.13;5.75;;;;;;;8.09;52.43;100779.97;7391101;19;20002;-57
2022/11/24 07:37:18;;;;;;;19.15;6.05;;;;;;;8.19;52.23;100783.47;7393162;19;20091;-57
2022/11/24 07:39:44;;;;;;;21.05;5.72;;;;;;;8.16;52.36;100784.91;7389919;19;20010;-57
2022/11/24 07:42:16;;;;;;;16.55;5.57;;;;;;;8.18;52.57;100793.56;7390521;19;20002;-57
2022/11/24 07:44:42;;;;;;;19.92;5.95;;;;;;;8.27;52.33;100796.25;7391908;19;20015;-57
2022/11/24 07:47:08;;;;;;;26.85;9.50;;;;;;;8.30;52.39;100801.03;7387872;19;20053;-58
2022/11/24 07:49:33;;;;;;;33.10;13.02;;;;;;;8.39;52.23;100799.09;7392314;19;20019;-58
2022/11/24 07:51:59;;;;;;;25.48;9.27;;;;;;;8.44;52.34;100807.06;7392052;19;20007;-59
2022/11/24 07:54:25;;;;;;;19.25;7.03;;;;;;;8.51;51.97;100812.00;7392703;19;20032;-59
2022/11/24 07:56:51;;;;;;;21.15;5.68;;;;;;;8.56;52.16;100811.03;7388984;19;20538;-58
2022/11/24 07:59:17;;;;;;;24.92;6.20;;;;;;;8.58;52.23;100816.94;7390349;19;20384;-59
2022/11/24 08:01:42;;;;;;;18.25;5.97;;;;;;;8.54;52.23;100822.22;7389825;19;20458;-58
2022/11/24 08:04:08;;;;;;;24.48;5.85;;;;;;;8.52;52.52;100824.47;7391174;19;20351;-58
2022/11/24 08:06:33;;;;;;;16.80;5.68;;;;;;;8.53;52.21;100826.88;7391105;19;19998;-58
2022/11/24 08:08:59;;;;;;;22.05;5.10;;;;;;;8.54;52.45;100833.13;7392251;19;20002;-57
2022/11/24 08:11:25;;;;;;;22.08;5.85;;;;;;;8.49;52.55;100834.09;7390966;19;20320;-58
2022/11/24 08:13:51;;;;;;;17.05;5.03;;;;;;;8.55;52.50;100832.00;7390972;19;20509;-58
2022/11/24 08:16:18;;;;;;;21.73;5.32;;;;;;;8.56;52.44;100840.94;7389030;19;20069;-58
2022/11/24 08:18:54;;;;;;;16.58;4.90;;;;;;;8.52;52.39;100835.38;7390625;19;20074;-59
2022/11/24 08:21:22;;;;;;;23.92;5.78;;;;;;;8.53;52.68;100843.19;7390340;19;20549;-59
2022/11/24 08:23:48;;;;;;;20.45;4.80;;;;;;;8.57;52.58;100843.34;7392154;19;20006;-61
2022/11/24 08:26:17;;;;;;;17.08;5.50;;;;;;;8.58;52.66;100838.69;7390970;19;20065;-59
2022/11/24 08:28:45;;;;;;;18.05;4.70;;;;;;;8.63;52.63;100843.94;7391483;19;20006;-58
2022/11/24 08:31:19;;;;;;;20.33;6.53;;;;;;;8.64;52.51;100845.56;7391854;19;20034;-57
2022/11/24 08:33:46;;;;;;;25.08;8.93;;;;;;;8.55;52.93;100842.06;7390044;19;20014;-57
2022/11/24 08:36:14;;;;;;;21.55;9.05;;;;;;;8.58;53.18;100847.69;7388880;19;20003;-57
2022/11/24 08:38:40;;;;;;;24.38;9.30;;;;;;;8.71;52.70;100849.38;7391620;19;20018;-57
2022/11/24 08:41:09;;;;;;;23.08;8.23;;;;;;;8.80;52.68;100851.22;7389461;19;20006;-57
2022/11/24 08:43:35;;;;;;;26.35;7.70;;;;;;;8.83;52.82;100859.56;7389533;19;20023;-57
2022/11/24 08:46:05;;;;;;;19.70;6.82;;;;;;;8.98;52.23;100863.66;7389878;19;21330;-57
2022/11/24 08:48:31;;;;;;;22.67;5.50;;;;;;;9.15;52.25;100864.66;7390587;19;20034;-58
2022/11/24 08:50:57;;;;;;;21.08;5.55;;;;;;;9.16;52.23;100858.88;7390998;19;20485;-58
2022/11/24 08:53:24;;;;;;;21.73;5.65;;;;;;;9.15;52.35;100864.66;7390858;19;20506;-57
2022/11/24 08:55:49;;;;;;;22.35;5.65;;;;;;;9.15;52.24;100868.19;7389857;19;20006;-58
2022/11/24 08:58:15;;;;;;;20.00;5.10;;;;;;;9.19;52.19;100868.34;7394649;19;20005;-58
2022/11/24 09:00:42;;;;;;;17.67;5.35;;;;;;;9.17;52.35;100873.31;7395725;19;19999;-57
2022/11/24 09:03:10;;;;;;;22.33;5.00;;;;;;;9.14;52.58;100874.75;7397935;19;20050;-58
2022/11/24 09:05:36;;;;;;;20.42;5.80;;;;;;;9.21;52.21;100880.47;7398463;19;20514;-58
2022/11/24 09:08:02;;;;;;;20.67;5.07;;;;;;;9.33;52.37;100889.88;7394864;19;20040;-58
2022/11/24 09:10:28;;;;;;;23.15;5.43;;;;;;;9.39;52.23;100883.91;7399328;19;20036;-58
2022/11/24 09:12:53;;;;;;;20.77;4.90;;;;;;;9.52;51.91;100887.50;7397863;19;20443;-57
2022/11/24 09:15:19;;;;;;;21.77;5.45;;;;;;;9.49;52.01;100890.88;7396620;19;20003;-57
2022/11/24 09:17:45;;;;;;;18.55;4.72;;;;;;;9.61;52.04;100892.91;7395539;19;19998;-57
2022/11/24 09:20:11;;;;;;;24.88;5.70;;;;;;;9.59;51.93;100895.19;7396776;19;20448;-56
2022/11/24 09:22:38;;;;;;;25.02;5.63;;;;;;;9.62;51.90;100891.78;7397311;19;20415;-56
2022/11/24 09:25:05;;;;;;;23.42;5.28;;;;;;;9.55;52.05;100896.91;7396331;19;20013;-56
2022/11/24 09:27:31;;;;;;;25.65;5.07;;;;;;;9.63;52.10;100899.63;7396428;19;20011;-57
2022/11/24 09:29:57;;;;;;;24.73;6.03;;;;;;;9.60;52.31;100902.19;7395122;19;20018;-57
2022/11/24 09:32:23;;;;;;;22.35;4.97;;;;;;;9.73;51.92;100903.06;7397977;19;20023;-58
2022/11/24 09:34:49;;;;;;;28.27;5.40;;;;;;;9.73;52.11;100897.63;7394590;19;20013;-59
2022/11/24 09:37:16;;;;;;;16.70;4.50;;;;;;;9.72;52.06;100901.50;7394745;19;19999;-58
2022/11/24 09:39:42;;;;;;;21.13;5.40;;;;;;;9.72;52.20;100896.06;7397864;19;20006;-58
2022/11/24 09:42:32;;;;;;;21.85;4.90;;;;;;;9.72;52.09;100909.69;7394289;19;19999;-59
2022/11/24 09:45:25;;;;;;;16.83;4.35;;;;;;;9.68;51.96;100906.78;7394324;19;20482;-59
2022/11/24 09:48:12;;;;;;;23.00;4.57;;;;;;;9.63;51.93;100904.28;7394101;19;20017;-59
2022/11/24 09:50:38;;;;;;;22.77;5.47;;;;;;;9.72;51.94;100910.47;7397393;19;20006;-58
2022/11/24 09:53:14;;;;;;;18.50;4.38;;;;;;;9.68;51.97;100911.44;7396239;19;19998;-58
2022/11/24 09:55:46;;;;;;;17.77;4.13;;;;;;;9.71;52.08;100910.78;7394016;19;19998;-59
2022/11/24 09:58:32;;;;;;;21.02;5.05;;;;;;;9.67;52.13;100912.56;7397351;19;20030;-59
2022/11/24 10:00:58;;;;;;;17.80;4.10;;;;;;;9.72;51.83;100912.41;7394974;19;20027;-59
2022/11/24 10:03:30;;;;;;;17.77;4.00;;;;;;;9.86;51.74;100918.38;7393981;19;19994;-59
2022/11/24 10:05:59;;;;;;;20.63;4.53;;;;;;;9.92;51.56;100925.22;7392890;19;20384;-59
2022/11/24 10:08:37;;;;;;;23.10;4.63;;;;;;;9.82;51.52;100926.41;7395411;19;20062;-59
2022/11/24 10:11:11;;;;;;;16.10;3.83;;;;;;;9.62;52.02;100919.84;7394827;19;20006;-59
2022/11/24 10:13:44;;;;;;;;;;;;;;;9.68;52.02;100919.63;7396847;19;20069;-59
2022/11/24 10:16:56;;;;;;;23.23;4.75;;;;;;;9.87;51.30;100930.88;7394674;19;19925;-60
2022/11/24 10:19:46;;;;;;;19.77;4.30;;;;;;;9.97;51.25;100930.47;7390712;19;20412;-59
2022/11/24 10:22:35;;;;;;;17.08;4.53;;;;;;;9.87;51.38;100928.16;7393558;19;20006;-60
2022/11/24 10:25:10;;;;;;;20.48;4.55;;;;;;;10.00;51.27;100923.53;7394597;19;20431;-60
2022/11/24 10:27:45;;;;;;;19.52;5.00;;;;;;;9.99;51.47;100936.38;7393345;19;20006;-61
2022/11/24 10:30:20;;;;;;;17.73;4.40;;;;;;;9.76;51.76;100941.38;7392838;19;19998;-61
2022/11/24 10:32:51;;;;;;;20.73;4.78;;;;;;;9.96;51.67;100939.75;7396048;19;20450;-59
2022/11/24 10:35:26;;;;;;;22.05;5.05;;;;;;;9.99;51.16;100950.00;7391634;19;19999;-59
2022/11/24 10:38:05;;;;;;;19.05;4.68;;;;;;;9.90;51.35;100946.56;7393837;19;20096;-59
2022/11/24 10:41:15;;;;;;;19.50;4.97;;;;;;;10.03;51.10;100944.69;7393554;19;20431;-59
2022/11/24 10:43:41;;;;;;;16.30;4.38;;;;;;;10.14;50.96;100939.63;7394583;19;20037;-59
2022/11/24 10:46:15;;;;;;;17.17;4.25;;;;;;;10.19;51.11;100942.16;7392996;19;20008;-59
2022/11/24 10:48:52;;;;;;;20.60;4.88;;;;;;;10.23;50.72;100943.06;7390306;19;20023;-59
2022/11/24 10:51:33;;;;;;;17.08;4.35;;;;;;;10.28;50.59;100948.31;7392173;19;20541;-59
2022/11/24 10:54:25;;;;;;;17.70;4.40;;;;;;;10.27;50.86;100952.19;7395320;19;20058;-59
2022/11/24 10:56:53;;;;;;;19.38;4.07;;;;;;;10.29;50.71;100941.72;7390449;19;20074;-58
2022/11/24 10:59:31;;;;;;;18.98;4.18;;;;;;;10.31;50.61;100949.56;7394062;19;20015;-58
2022/11/24 11:01:58;;;;;;;21.30;5.20;;;;;;;10.29;50.61;100954.59;7395062;19;20011;-59
2022/11/24 11:04:30;;;;;;;21.08;4.90;;;;;;;10.34;50.37;100955.16;7397824;19;19995;-59
2022/11/24 11:07:07;;;;;;;24.98;5.43;;;;;;;10.33;50.73;100959.00;7394635;19;19999;-59
2022/11/24 11:09:33;;;;;;;21.63;5.70;;;;;;;10.44;50.36;100961.34;7397020;19;19991;-60
2022/11/24 11:12:17;;;;;;;18.50;5.30;;;;;;;10.49;50.39;100966.59;7395807;19;20332;-58
2022/11/24 11:14:46;;;;;;;23.50;4.55;;;;;;;10.54;50.33;100960.91;7396051;19;19994;-59
2022/11/24 11:17:34;;;;;;;19.55;4.68;;;;;;;10.51;50.12;100964.31;7390324;19;20005;-60
2022/11/24 11:20:06;;;;;;;18.42;5.03;;;;;;;10.50;50.24;100971.72;7390031;19;20473;-59
2022/11/24 11:22:36;;;;;;;19.65;4.88;;;;;;;10.52;50.23;100971.38;7392786;19;20009;-59
2022/11/24 11:25:13;;;;;;;20.80;5.28;;;;;;;10.43;50.37;100973.38;7390656;19;20006;-59
2022/11/24 11:27:40;;;;;;;19.55;5.15;;;;;;;10.35;50.41;100966.84;7391191;19;20002;-59
2022/11/24 11:30:20;;;;;;;19.00;4.50;;;;;;;10.24;50.71;100973.88;7390078;19;19999;-59
2022/11/24 11:32:53;;;;;;;17.02;4.60;;;;;;;10.27;50.43;100975.91;7391045;19;20002;-59
2022/11/24 11:35:20;;;;;;;24.55;5.07;;;;;;;10.50;50.41;100979.06;7391136;19;19999;-59
2022/11/24 11:37:47;;;;;;;19.23;4.50;;;;;;;10.50;50.21;100990.00;7390717;19;19995;-59
2022/11/24 11:40:26;;;;;;;19.83;5.13;;;;;;;10.59;49.91;100996.19;7392530;19;20002;-59